Terminal Aerodrome Forecast
Issued by NWS Binghamton, NY

Home | Current Version | Previous Version | Text Only | Print | Product List | Glossary On
Versions: 1 2 3 4 5 6 7 8 9 10 11 12 13 14 15 16 17
000
FTUS41 KBGM 292330
TAFAVP
TAF
KAVP 292330Z 3000/3024 19006KT P6SM SCT060
     FM300300 21004KT P6SM -SHRA SCT050 OVC080
     FM300500 VRB04KT 6SM -SHRA BR SCT020 BKN040
     FM301200 23005KT P6SM BKN035=

USA.gov is the U.S. government's official web portal to all federal, state and local government web resources and services.